Latest Weather Observations for Sydney Harbour

IDN60801

Issued at 12:33 am EST Saturday 17 April 2021 (issued every 10 minutes, with the page automatically refreshed every 10 minutes)

About weather observations | Map of weather stations | Latest weather observations for NSW | Other Formats
Station Details ID: 066196 Name: WEDDING CAKE WEST Lat: -33.84 Lon: 151.26 Height: 6.0 m
Data from the previous 72 hours. | See also: Recent months at Sydney Harbour
Date/Time
EST
Temp
°C
App
Temp
°C
Dew
Point
°C
Rel
Hum
%
Delta-T
°C
Wind Press
QNH
hPa
Press
MSL
hPa
Rain since
9am
mm
Dir  Spd
km/h
Gust
km/h
Spd
kts
Gust
kts
17/12:30am 18.5 - - - - SE 13 17 7 9 - - -
17/12:00am 18.6 - - - - SE 17 24 9 13 - - -
 
Date/Time
EST
Temp
°C
App
Temp
°C
Dew
Point
°C
Rel
Hum
%
Delta-T
°C
Wind Press
QNH
hPa
Press
MSL
hPa
Rain since
9am
mm
Dir  Spd
km/h
Gust
km/h
Spd
kts
Gust
kts
16/11:30pm 18.6 - - - - ESE 13 19 7 10 - - -
16/11:00pm 18.6 - - - - SE 15 20 8 11 - - -
16/10:30pm 18.6 - - - - ESE 19 20 10 11 - - -
16/10:00pm 18.6 - - - - SE 15 19 8 10 - - -
16/09:30pm 18.6 - - - - SE 17 20 9 11 - - -
16/09:00pm 18.7 - - - - SE 19 24 10 13 - - -
16/08:30pm 18.6 - - - - SE 19 22 10 12 - - -
16/08:00pm 18.7 - - - - SE 20 26 11 14 - - -
16/07:30pm 18.7 - - - - SE 22 30 12 16 - - -
16/07:00pm 18.7 - - - - SSE 20 28 11 15 - - -
16/06:30pm 18.8 - - - - SE 20 28 11 15 - - -
16/06:00pm 18.7 - - - - SE 20 28 11 15 - - -
16/05:30pm 18.7 - - - - SE 24 32 13 17 - - -
16/05:00pm 18.7 - - - - SSE 22 30 12 16 - - -
16/04:30pm 18.8 - - - - SSE 24 33 13 18 - - -
16/04:00pm 18.9 - - - - SSE 24 35 13 19 - - -
16/03:30pm 19.0 - - - - SSE 32 39 17 21 - - -
16/03:00pm 18.9 - - - - SSE 26 33 14 18 - - -
16/02:30pm 19.1 - - - - SSE 30 35 16 19 - - -
16/02:00pm 19.1 - - - - SSE 26 33 14 18 - - -
16/01:30pm 19.2 - - - - S 26 37 14 20 - - -
16/01:00pm 19.2 - - - - SSE 30 39 16 21 - - -
16/12:30pm 19.3 - - - - S 33 43 18 23 - - -
16/12:00pm 19.8 - - - - S 30 39 16 21 - - -
16/11:30am 19.4 - - - - S 32 41 17 22 - - -
16/11:00am 19.8 - - - - S 33 43 18 23 - - -
16/10:30am 20.4 - - - - S 30 41 16 22 - - -
16/10:00am 20.3 - - - - SSW 24 32 13 17 - - -
16/09:30am 19.7 - - - - SSW 20 26 11 14 - - -
16/09:00am 18.8 - - - - WSW 17 20 9 11 - - -
16/08:30am 18.0 - - - - WSW 15 22 8 12 - - -
16/08:00am 17.5 - - - - W 19 24 10 13 - - -
16/07:30am 17.1 - - - - WSW 22 28 12 15 - - -
16/07:00am 17.2 - - - - WSW 22 30 12 16 - - -
16/06:30am 17.1 - - - - WSW 26 33 14 18 - - -
16/06:00am 17.4 - - - - WSW 30 39 16 21 - - -
16/05:30am 17.5 - - - - WSW 28 41 15 22 - - -
16/05:00am 17.7 - - - - WSW 28 43 15 23 - - -
16/04:30am 17.9 - - - - WSW 33 41 18 22 - - -
16/04:08am 18.0 - - - - WSW 32 50 17 27 - - -
16/04:00am 18.2 - - - - WSW 30 43 16 23 - - -
16/03:30am 18.3 - - - - WSW 30 44 16 24 - - -
16/03:00am 18.4 - - - - WSW 26 37 14 20 - - -
16/02:30am 18.6 - - - - SW 26 32 14 17 - - -
16/02:00am 18.8 - - - - SW 32 41 17 22 - - -
16/01:30am 19.4 - - - - WSW 28 37 15 20 - - -
16/01:00am 19.7 - - - - WSW 26 35 14 19 - - -
16/12:39am 19.8 - - - - WSW 30 48 16 26 - - -
16/12:30am 19.9 - - - - WSW 30 41 16 22 - - -
16/12:00am 20.0 - - - - WSW 26 41 14 22 - - -
 
Date/Time
EST
Temp
°C
App
Temp
°C
Dew
Point
°C
Rel
Hum
%
Delta-T
°C
Wind Press
QNH
hPa
Press
MSL
hPa
Rain since
9am
mm
Dir  Spd
km/h
Gust
km/h
Spd
kts
Gust
kts
15/11:30pm 20.5 - - - - WSW 24 33 13 18 - - -
15/11:00pm 20.8 - - - - WSW 22 28 12 15 - - -
15/10:30pm 20.7 - - - - W 19 28 10 15 - - -
15/10:00pm 20.9 - - - - W 20 24 11 13 - - -
15/09:30pm 21.3 - - - - W 22 30 12 16 - - -
15/09:00pm 21.6 - - - - WSW 17 26 9 14 - - -
15/08:30pm 22.0 - - - - W 17 24 9 13 - - -
15/08:00pm 22.2 - - - - WSW 15 20 8 11 - - -
15/07:30pm 20.9 - - - - NW 4 9 2 5 - - -
15/07:00pm 21.3 - - - - NNW 9 13 5 7 - - -
15/06:30pm 21.3 - - - - N 13 15 7 8 - - -
15/06:00pm 21.6 - - - - ENE 9 13 5 7 - - -
15/05:30pm 21.7 - - - - NNE 13 15 7 8 - - -
15/05:00pm 21.7 - - - - NE 13 17 7 9 - - -
15/04:30pm 21.9 - - - - NNE 17 19 9 10 - - -
15/04:00pm 21.9 - - - - NE 17 20 9 11 - - -
15/03:30pm 21.8 - - - - NE 20 24 11 13 - - -
15/03:00pm 22.5 - - - - SW 11 20 6 11 - - -
15/02:30pm 23.9 - - - - SW 17 22 9 12 - - -
15/02:00pm 23.5 - - - - SW 11 15 6 8 - - -
15/01:30pm 23.2 - - - - SW 9 15 5 8 - - -
15/01:00pm 23.1 - - - - SW 15 20 8 11 - - -
15/12:30pm 22.9 - - - - W 13 20 7 11 - - -
15/12:00pm 22.7 - - - - NW 11 15 6 8 - - -
15/11:30am 22.1 - - - - WSW 17 32 9 17 - - -
15/11:00am 21.4 - - - - WSW 19 28 10 15 - - -
15/10:30am 21.3 - - - - WSW 17 24 9 13 - - -
15/10:00am 20.7 - - - - WSW 17 22 9 12 - - -
15/09:30am 19.9 - - - - WSW 15 22 8 12 - - -
15/09:00am 19.6 - - - - W 17 20 9 11 - - -
15/08:30am 19.7 - - - - WSW 17 20 9 11 - - -
15/08:00am 19.9 - - - - WSW 17 22 9 12 - - -
15/07:30am 20.2 - - - - SW 19 22 10 12 - - -
15/07:00am 19.6 - - - - SW 13 17 7 9 - - -
15/06:30am 18.8 - - - - SSW 6 7 3 4 - - -
15/06:00am 18.6 - - - - SW 7 11 4 6 - - -
15/05:30am 19.2 - - - - SSW 15 19 8 10 - - -
15/05:00am 19.9 - - - - SW 15 19 8 10 - - -
15/04:30am 19.4 - - - - SSW 20 26 11 14 - - -
15/04:00am 19.6 - - - - SSW 20 28 11 15 - - -
15/03:30am 19.7 - - - - SW 17 20 9 11 - - -
15/03:00am 19.0 - - - - SW 6 9 3 5 - - -
15/02:30am 18.9 - - - - WSW 9 11 5 6 - - -
15/02:00am 19.9 - - - - SW 6 7 3 4 - - -
15/01:30am 20.6 - - - - W 7 9 4 5 - - -
15/01:00am 20.1 - - - - W 6 7 3 4 - - -
15/12:30am 21.3 - - - - SSE 17 20 9 11 - - -
15/12:00am 21.7 - - - - W 7 11 4 6 - - -
 
Date/Time
EST
Temp
°C
App
Temp
°C
Dew
Point
°C
Rel
Hum
%
Delta-T
°C
Wind Press
QNH
hPa
Press
MSL
hPa
Rain since
9am
mm
Dir  Spd
km/h
Gust
km/h
Spd
kts
Gust
kts
14/11:30pm 22.9 - - - - WNW 11 17 6 9 - - -
14/11:00pm 23.6 - - - - WNW 4 13 2 7 - - -
14/10:30pm 23.7 - - - - WNW 13 20 7 11 - - -
14/10:00pm 22.5 - - - - NNW 13 17 7 9 - - -
14/09:30pm 22.9 - - - - NW 13 17 7 9 - - -
14/09:00pm 24.3 - - - - NW 13 17 7 9 - - -
14/08:30pm 24.3 - - - - WNW 13 19 7 10 - - -
14/08:00pm 25.0 - - - - NW 13 22 7 12 - - -
14/07:30pm 24.5 - - - - NNW 11 13 6 7 - - -
14/07:00pm 25.0 - - - - NW 13 17 7 9 - - -
14/06:30pm 25.8 - - - - NW 13 20 7 11 - - -
14/06:00pm 23.6 - - - - N 11 13 6 7 - - -
14/05:30pm 23.9 - - - - N 13 15 7 8 - - -
14/05:00pm 23.8 - - - - NNE 13 17 7 9 - - -
14/04:30pm 24.1 - - - - NNE 13 19 7 10 - - -
14/04:00pm 27.1 - - - - NNW 9 17 5 9 - - -
14/03:30pm 25.9 - - - - N 9 15 5 8 - - -
14/03:00pm 26.0 - - - - NNW 17 26 9 14 - - -
14/02:30pm 26.0 - - - - N 15 20 8 11 - - -
14/02:00pm 25.3 - - - - N 17 22 9 12 - - -
14/01:30pm 24.8 - - - - NNW 13 20 7 11 - - -
14/01:00pm 25.1 - - - - WNW 19 24 10 13 - - -
14/12:30pm 25.2 - - - - NNW 17 28 9 15 - - -
14/12:00pm 24.6 - - - - NW 15 22 8 12 - - -
14/11:30am 24.3 - - - - NW 15 24 8 13 - - -
14/11:00am 23.7 - - - - WNW 17 30 9 16 - - -
14/10:30am 23.0 - - - - WNW 20 32 11 17 - - -
14/10:00am 22.3 - - - - NW 13 19 7 10 - - -
14/09:30am 21.4 - - - - N 17 20 9 11 - - -
14/09:00am 20.4 - - - - N 19 26 10 14 - - -
14/08:30am 19.3 - - - - N 19 24 10 13 - - -
14/08:00am 19.1 - - - - NNW 22 30 12 16 - - -
14/07:30am 18.3 - - - - NNW 22 28 12 15 - - -
14/07:00am 17.8 - - - - NNW 22 35 12 19 - - -
14/06:30am 17.0 - - - - NNW 26 33 14 18 - - -
14/06:00am 17.0 - - - - NNW 22 32 12 17 - - -
14/05:30am 17.1 - - - - NNW 22 30 12 16 - - -
14/05:00am 16.7 - - - - N 20 24 11 13 - - -
14/04:30am 16.5 - - - - NNW 9 15 5 8 - - -
14/04:00am 16.9 - - - - N 15 17 8 9 - - -
14/03:30am 17.5 - - - - N 17 20 9 11 - - -
14/03:00am 17.6 - - - - N 13 17 7 9 - - -
14/02:30am 17.5 - - - - N 19 24 10 13 - - -
14/02:00am 17.3 - - - - N 17 24 9 13 - - -
14/01:30am 17.2 - - - - N 19 22 10 12 - - -
14/01:00am 17.4 - - - - N 17 26 9 14 - - -

Other formats

Comma delimited format used in spreadsheet applications
http://www.bom.gov.au/fwo/IDN60801/IDN60801.95766.axf

JavaScript Object Notation format (JSON) in row-major order
http://www.bom.gov.au/fwo/IDN60801/IDN60801.95766.json

Data quality

Most of these data are generated automatically and are frequently updated. Quality checks on data are not normally performed. It is possible for incorrect values to appear. Refer to information at About Latest Weather Observations and please check the disclaimer before using these data.